Weather reports worldwide

Advertisment
Ferrara, Italy (16133): temperature & dewpoint: 17.05.2019 14:00:00 - 23.05.2019 14:00:00 (CEST)Ferrara, Italy (16133): wind speed: 17.05.2019 14:00:00 - 23.05.2019 14:00:00 (CEST)Ferrara, Italy (16133): wind direction: 17.05.2019 14:00:00 - 23.05.2019 14:00:00 (CEST)Ferrara, Italy (16133): reduced air pressure: 17.05.2019 14:00:00 - 23.05.2019 14:00:00 (CEST)
Date & Time tt [°C] td [°C] ff [km/h] ff [kn] dd ppp [hPa]
23.05.2019 14:00:00 - - - - - -
23.05.2019 13:00:00 20,8 13,4 4 2 SSW 1016,4
23.05.2019 12:00:00 21,3 14,4 2 1 N 1017,0
23.05.2019 11:00:00 18,6 14,0 2 1 SE 1017,0
23.05.2019 10:00:00 17,6 14,0 2 1 WSW 1017,2
23.05.2019 09:00:00 16,5 14,8 4 2 WSW 1017,0
23.05.2019 08:00:00 14,6 12,9 2 1 SW 1017,0
23.05.2019 07:00:00 15,5 13,7 6 4 W 1016,3
23.05.2019 06:00:00 15,4 13,4 0 0 N 1015,9
23.05.2019 05:00:00 14,5 12,8 2 1 SE 1016,8
23.05.2019 04:00:00 14,2 12,6 0 0 N 1016,2
23.05.2019 03:00:00 15,6 13,4 4 2 NNW 1015,7
23.05.2019 02:00:00 13,8 12,2 0 0 N 1016,1
23.05.2019 01:00:00 13,8 12,2 0 0 N 1016,2
23.05.2019 00:00:00 14,1 12,5 0 0 N 1015,9
22.05.2019 23:00:00 16,3 13,1 9 5 ENE 1016,0
22.05.2019 22:00:00 16,9 14,0 8 5 ENE 1014,9
22.05.2019 21:00:00 15,8 13,7 2 1 NE 1014,9
22.05.2019 20:00:00 16,7 13,0 4 2 NNE 1014,5
22.05.2019 19:00:00 21,9 14,3 10 5 E 1013,4
22.05.2019 18:00:00 22,9 11,6 9 5 SW 1013,8
22.05.2019 17:00:00 23,3 10,7 9 5 WNW 1013,3
22.05.2019 16:00:00 21,7 13,5 4 2 SSW 1014,0
22.05.2019 15:00:00 21,6 13,9 5 3 S 1014,5
22.05.2019 14:00:00 20,8 13,2 4 2 N 1014,8
22.05.2019 13:00:00 21,0 13,8 4 2 ENE 1015,2
22.05.2019 12:00:00 19,8 14,3 5 3 NW 1015,2
22.05.2019 11:00:00 18,7 12,7 13 7 WNW 1014,6
22.05.2019 10:00:00 17,7 15,4 9 5 W 1015,0
22.05.2019 09:00:00 16,3 13,8 5 3 W 1014,9
22.05.2019 08:00:00 13,4 11,8 4 2 N 1014,5
22.05.2019 07:00:00 14,3 12,9 5 3 W 1013,6
22.05.2019 06:00:00 14,6 13,6 3 2 WSW 1013,2
22.05.2019 05:00:00 13,2 11,6 0 0 N 1013,4
22.05.2019 04:00:00 14,2 12,6 0 0 N 1013,3
22.05.2019 03:00:00 15,6 14,0 5 3 N 1012,7
22.05.2019 02:00:00 14,3 12,7 0 0 N 1013,3
22.05.2019 01:00:00 15,0 13,3 0 0 N 1013,3
22.05.2019 00:00:00 15,7 14,0 0 0 N 1013,0
21.05.2019 23:00:00 15,7 14,0 9 5 NE 1012,9
21.05.2019 22:00:00 17,0 13,9 7 4 NE 1011,7
21.05.2019 21:00:00 18,1 13,6 9 5 NE 1010,9
21.05.2019 20:00:00 18,1 13,5 5 3 ENE 1010,8
21.05.2019 19:00:00 18,8 13,8 5 3 E 1010,2
21.05.2019 18:00:00 20,2 14,3 16 9 ENE 1009,7
21.05.2019 17:00:00 20,4 14,7 4 2 SE 1010,2
21.05.2019 16:00:00 21,1 13,9 2 1 NE 1010,1
21.05.2019 15:00:00 21,3 11,9 4 2 SSE 1009,6
21.05.2019 14:00:00 19,6 13,2 2 1 SE 1009,9
21.05.2019 13:00:00 20,2 11,7 4 2 SSW 1009,3
21.05.2019 12:00:00 18,4 13,6 2 1 SSW 1009,5
21.05.2019 11:00:00 17,4 14,4 2 1 W 1009,3
21.05.2019 10:00:00 16,6 14,0 4 2 W 1009,2
21.05.2019 09:00:00 14,0 12,4 0 0 N 1008,9
21.05.2019 08:00:00 12,6 11,0 0 0 N 1008,2
21.05.2019 07:00:00 13,2 11,4 3 2 SW 1007,5
21.05.2019 06:00:00 13,1 11,3 0 0 N 1007,2
21.05.2019 05:00:00 12,6 11,0 0 0 N 1007,8
21.05.2019 04:00:00 13,4 12,0 8 4 SE 1007,1
21.05.2019 03:00:00 13,2 11,6 0 0 N 1008,0
21.05.2019 02:00:00 12,7 11,1 0 0 N 1008,2
21.05.2019 01:00:00 13,3 11,7 0 0 N 1008,5
21.05.2019 00:00:00 13,3 11,7 0 0 N 1008,2
20.05.2019 23:00:00 14,2 12,4 5 3 SSW 1007,6
20.05.2019 22:00:00 14,1 12,8 5 3 SSW 1007,3
20.05.2019 21:00:00 14,0 12,4 2 1 S 1007,5
20.05.2019 20:00:00 14,5 12,8 0 0 N 1007,1
20.05.2019 19:00:00 15,2 12,0 8 4 N 1006,3
20.05.2019 18:00:00 17,9 10,5 22 12 WNW 1006,2
20.05.2019 17:00:00 18,5 11,7 2 1 W 1006,3
20.05.2019 16:00:00 19,7 10,4 5 3 SSE 1005,9
20.05.2019 15:00:00 18,6 9,6 3 2 WNW 1006,1
20.05.2019 14:00:00 17,4 10,5 5 3 WSW 1006,6
20.05.2019 13:00:00 16,9 12,2 5 3 SSW 1006,4
20.05.2019 12:00:00 16,2 10,9 9 5 W 1005,9
20.05.2019 11:00:00 15,0 11,4 9 5 W 1005,9
20.05.2019 10:00:00 13,7 11,8 4 2 WSW 1006,2
20.05.2019 09:00:00 13,3 12,4 9 5 W 1005,3
20.05.2019 08:00:00 12,8 11,2 2 1 SW 1005,3
20.05.2019 07:00:00 12,3 10,7 0 0 N 1004,8
20.05.2019 06:00:00 12,7 12,1 9 5 W 1004,1
20.05.2019 05:00:00 12,4 10,8 2 1 WSW 1004,9
20.05.2019 04:00:00 13,2 12,6 9 5 W 1004,5
20.05.2019 03:00:00 13,2 12,6 8 5 W 1004,5
20.05.2019 02:00:00 12,9 11,3 0 0 N 1005,3
20.05.2019 01:00:00 12,7 11,1 0 0 N 1005,3
20.05.2019 00:00:00 12,9 11,3 2 1 WSW 1005,5
19.05.2019 23:00:00 14,1 13,3 7 4 W 1004,9
19.05.2019 22:00:00 14,7 13,7 3 1 SSW 1004,8
19.05.2019 21:00:00 14,7 13,7 3 1 WNW 1004,5
19.05.2019 20:00:00 14,4 12,8 0 0 N 1004,9
19.05.2019 19:00:00 14,7 13,2 6 3 ENE 1004,3
19.05.2019 18:00:00 13,9 12,9 7 4 NE 1004,2
19.05.2019 17:00:00 13,1 11,5 4 2 NE 1004,9
19.05.2019 16:00:00 12,4 9,4 - - - 1004,9
19.05.2019 15:00:00 16,5 12,2 11 6 N 1003,9
19.05.2019 14:00:00 17,1 13,7 5 3 SW 1003,9
19.05.2019 13:00:00 17,6 12,7 8 4 WSW 1003,6
19.05.2019 12:00:00 16,6 13,1 6 4 W 1003,9
19.05.2019 11:00:00 15,0 13,3 2 1 SW 1004,6
19.05.2019 10:00:00 14,8 13,5 7 4 W 1004,2
19.05.2019 09:00:00 14,2 13,6 4 2 W 1004,2
19.05.2019 08:00:00 13,3 11,7 2 1 WSW 1004,6
19.05.2019 07:00:00 13,7 13,2 4 2 W 1004,0
19.05.2019 06:00:00 14,0 13,5 2 1 SE 1004,2
19.05.2019 05:00:00 13,6 12,0 0 0 N 1004,8
19.05.2019 04:00:00 13,9 13,4 3 2 NNE 1004,7
19.05.2019 03:00:00 13,6 13,1 4 2 N 1005,1
19.05.2019 02:00:00 13,5 11,9 2 1 NNE 1006,0
19.05.2019 01:00:00 13,5 11,9 0 0 N 1006,2
19.05.2019 00:00:00 13,5 11,9 2 1 NNE 1006,4
18.05.2019 23:00:00 13,5 11,9 4 2 NNE 1006,6
18.05.2019 22:00:00 14,1 13,5 8 4 N 1006,1
18.05.2019 21:00:00 14,2 13,4 8 4 NNE 1005,9
18.05.2019 20:00:00 14,2 12,6 4 2 NNE 1006,2
18.05.2019 19:00:00 14,5 12,8 8 4 NE 1005,8
18.05.2019 18:00:00 15,0 12,7 15 8 NNE 1005,2
18.05.2019 17:00:00 14,2 12,6 11 6 NE 1005,9
18.05.2019 16:00:00 14,6 11,6 23 12 NE 1005,4
18.05.2019 15:00:00 13,3 11,7 - - - 1006,3
18.05.2019 14:00:00 13,2 11,6 13 7 NE 1006,7
18.05.2019 13:00:00 12,5 10,9 - - - 1006,7
18.05.2019 12:00:00 13,9 12,3 - - - 1006,9
18.05.2019 11:00:00 13,7 12,1 11 6 NE 1006,5
18.05.2019 10:00:00 13,2 11,6 8 4 NE 1006,9
18.05.2019 09:00:00 13,1 11,0 15 8 NE 1006,5
18.05.2019 08:00:00 11,8 10,2 8 4 NE 1007,1
18.05.2019 07:00:00 12,1 10,5 2 1 NE 1007,5
18.05.2019 06:00:00 12,8 11,2 11 6 ENE 1006,9
18.05.2019 05:00:00 12,4 10,8 5 3 NE 1007,5
18.05.2019 04:00:00 13,4 12,0 9 5 NE 1007,7
18.05.2019 03:00:00 13,6 11,5 9 5 ENE 1008,3
18.05.2019 02:00:00 13,0 11,4 12 6 ENE 1008,7
18.05.2019 01:00:00 13,1 11,5 5 3 ENE 1008,8
18.05.2019 00:00:00 13,7 12,1 5 3 NE 1009,1
17.05.2019 23:00:00 13,8 11,7 4 2 E 1009,4
17.05.2019 22:00:00 14,6 10,8 9 5 E 1008,9
17.05.2019 21:00:00 14,6 10,4 4 2 E 1009,1
17.05.2019 20:00:00 15,3 9,6 - - - 1009,0
17.05.2019 19:00:00 16,9 10,0 - - - 1009,0
17.05.2019 18:00:00 17,5 10,3 - - - 1009,2
17.05.2019 17:00:00 17,9 9,2 11 6 NNW 1009,4
17.05.2019 16:00:00 18,2 8,4 11 6 NW 1009,7
17.05.2019 15:00:00 18,4 8,9 9 5 W 1010,1
17.05.2019 14:00:00 18,4 9,7 11 6 SW 1010,3

tt = temperature
td = dewpoint
ff = wind speed
dd = wind direction
ppp = reduced air pressure

Next stations